KEFD/EFD METAR and TAF weather

Enter ICAO airport designator
Station Type Date Time Source
KEFD METAR 2020/06/06 12:50 UTC NOAA

KEFD 061250Z 34007KT 10SM CLR 27/23 A2986


Station Type Date Time Source
KEFD Decoded METAR 2020/06/06 12:50 UTC NOAA

Houston / Ellington, TX, United States (KEFD) 29-36N 095-10W
Jun 06, 2020 - 08:50 AM EDT / 2020.06.06 1250 UTC
Wind: from the NNW (340 degrees) at 8 MPH (7 KT):0
Visibility: 10 mile(s):0
Sky conditions: clear
Temperature: 80 F (27 C)
Dew Point: 73 F (23 C)
Relative Humidity: 78%
Pressure (altimeter): 29.86 in. Hg (1011 hPa)
ob: KEFD 061250Z 34007KT 10SM CLR 27/23 A2986
cycle: 13

Station Type Date Time Source
KEFD TAF 2020/06/06 12:13 UTC NOAA

TAF KEFD 061200Z 0612/0718 36006KT 9999 FEW250 QNH2982INS
BECMG 0616/0617 05012G18KT 9999 FEW040 QNH2974INS
TEMPO 0621/0702 VRB15G20KT 6000 -TSRA BKN030CB
BECMG 0701/0702 03006KT 9999 SCT045 QNH2971INS
BECMG 0715/0716 02010G15KT 9999 SKC QNH2970INS TX33/0621Z TN25/0612Z

Example: see airport list